This is the latest recevied weather packets stored in our database for station/object SV4JYD-14. If no packets are shown the sender has not sent any weather packets the latest 10 day(s).
| Time | Temp. | Humidity | Pressure | Rain* | Wind** | Luminosity | Snow |
|---|---|---|---|---|---|---|---|
| 1777324862 | 15° C | 66% | 1018 hPa | 0 mm | - | - | - |
| 1777323961 | 15° C | 66% | 1018 hPa | 0 mm | - | - | - |
| 1777323060 | 15° C | 64% | 1018 hPa | 0 mm | - | - | - |
| 1777322160 | 15° C | 63% | 1018 hPa | 0 mm | - | - | - |
| 1777321259 | 15.56° C | 62% | 1018 hPa | 0 mm | - | - | - |
| 1777320359 | 15.56° C | 62% | 1018 hPa | 0 mm | - | - | - |
| 1777319459 | 15.56° C | 62% | 1018 hPa | 0 mm | - | - | - |
| 1777318558 | 16.11° C | 61% | 1018 hPa | 0 mm | - | - | - |
| 1777317658 | 16.11° C | 60% | 1018 hPa | 0 mm | - | - | - |
| 1777316758 | 16.67° C | 59% | 1018 hPa | 0 mm | - | - | - |
| 1777315858 | 16.67° C | 59% | 1017 hPa | 0 mm | - | - | - |
| 1777314957 | 17.22° C | 57% | 1017 hPa | 0 mm | - | - | - |
| 1777314057 | 17.78° C | 57% | 1017 hPa | 0 mm | - | - | - |
| 1777313157 | 17.78° C | 56% | 1017 hPa | 0 mm | - | - | - |
| 1777312257 | 18.33° C | 52% | 1017 hPa | 0 mm | - | - | - |
| 1777311356 | 18.33° C | 52% | 1017 hPa | 0 mm | - | - | - |
| 1777310456 | 18.33° C | 53% | 1016 hPa | 0 mm | - | - | - |
| 1777309556 | 18.89° C | 52% | 1016 hPa | 0 mm | - | - | - |
| 1777308655 | 20.56° C | 46% | 1016 hPa | 0 mm | - | - | - |
| 1777307755 | 20.56° C | 46% | 1016 hPa | 0 mm | - | - | - |
| 1777306855 | 20.56° C | 48% | 1016 hPa | 0 mm | - | - | - |
| 1777305955 | 21.67° C | 43% | 1016 hPa | 0 mm | - | - | - |
| 1777304154 | 21.67° C | 43% | 1016 hPa | 0 mm | - | - | - |
| 1777303254 | 21.11° C | 50% | 1016 hPa | 0 mm | - | - | - |
| 1777302354 | 21.67° C | 49% | 1016 hPa | 0 mm | - | - | - |
* Rain latest hour (hover to see other rain measurements)
** Current wind speed in m/s (hover to see current wind gust speed)